createdAt,value
2023-04-03T00:01:39.234Z,97258.63
2023-04-03T00:06:30.942Z,97251.81
2023-04-03T00:11:22.731Z,97255.16
2023-04-03T00:16:14.602Z,97256.41
2023-04-03T00:21:08.356Z,97272.34
2023-04-03T00:26:00.125Z,97261.59
2023-04-03T00:30:52.782Z,97263.94
2023-04-03T00:35:44.616Z,97268.81
2023-04-03T00:40:42.318Z,97264.63
2023-04-03T00:45:41.301Z,97261.22
2023-04-03T00:50:38.619Z,97257.91
2023-04-03T00:55:31.404Z,97263.03
2023-04-03T01:00:24.574Z,97265.22
2023-04-03T01:05:20.212Z,97255.81
2023-04-03T01:10:16.818Z,97257.50
2023-04-03T01:15:17.739Z,97264.13
2023-04-03T01:20:28.888Z,97257.75
2023-04-03T01:25:20.710Z,97260.47
2023-04-03T01:30:17.758Z,97257.09
2023-04-03T01:35:11.285Z,97261.72
2023-04-03T01:40:04.636Z,97261.66
2023-04-03T01:44:56.461Z,97271.59
2023-04-03T01:49:48.144Z,97278.88
2023-04-03T01:54:39.872Z,97282.06
2023-04-03T01:59:31.804Z,97286.56
2023-04-03T02:04:23.579Z,97290.72
2023-04-03T02:09:15.622Z,97300.47
2023-04-03T02:14:07.888Z,97312.84
2023-04-03T02:18:59.648Z,97305.56
2023-04-03T02:23:51.409Z,97313.88
2023-04-03T02:28:43.281Z,97334.50
2023-04-03T02:33:37.523Z,97328.47
2023-04-03T02:38:29.252Z,97328.00
2023-04-03T02:43:20.910Z,97342.00
2023-04-03T02:48:13.007Z,97344.44
2023-04-03T02:53:04.662Z,97347.41
2023-04-03T02:57:56.343Z,97339.78
2023-04-03T03:02:50.112Z,97342.84
2023-04-03T03:07:41.852Z,97337.00
2023-04-03T03:12:33.892Z,97333.28
2023-04-03T03:17:25.696Z,97332.47
2023-04-03T03:22:18.006Z,97333.94
2023-04-03T03:27:09.712Z,97344.44
2023-04-03T03:32:01.363Z,97333.81
2023-04-03T03:36:53.046Z,97339.03
2023-04-03T03:41:44.703Z,97327.34
2023-04-03T03:46:36.604Z,97328.97
2023-04-03T04:01:43.070Z,97342.31
2023-04-03T04:06:34.830Z,97333.69
2023-04-03T04:11:28.604Z,97345.09
2023-04-03T04:16:20.302Z,97350.78
2023-04-03T04:21:12.020Z,97348.19
2023-04-03T04:26:03.792Z,97357.41
2023-04-03T04:30:55.520Z,97350.09
2023-04-03T04:35:49.563Z,97349.50
2023-04-03T04:40:45.063Z,97342.69
2023-04-03T04:45:36.914Z,97344.63
2023-04-03T04:50:28.735Z,97344.97
2023-04-03T04:55:20.432Z,97335.03
2023-04-03T05:00:13.152Z,97338.94
2023-04-03T05:05:05.701Z,97340.09
2023-04-03T05:09:57.537Z,97351.41
2023-04-03T05:14:49.274Z,97350.16
2023-04-03T05:19:40.954Z,97344.91
2023-04-03T05:24:32.720Z,97343.31
2023-04-03T05:29:25.032Z,97353.03
2023-04-03T05:34:16.868Z,97360.00
2023-04-03T05:39:09.592Z,97358.84
2023-04-03T05:44:02.545Z,97351.06
2023-04-03T05:48:54.272Z,97356.03
2023-04-03T05:53:47.632Z,97357.03
2023-04-03T05:58:39.305Z,97358.16
2023-04-03T06:03:32.127Z,97363.47
2023-04-03T06:08:25.004Z,97356.69
2023-04-03T06:13:16.688Z,97360.94
2023-04-03T06:18:09.103Z,97375.25
2023-04-03T06:28:21.025Z,97370.41
2023-04-03T06:33:13.431Z,97367.09
2023-04-03T06:38:10.286Z,97369.69
2023-04-03T06:43:03.534Z,97374.03
2023-04-03T06:47:55.292Z,97361.88
2023-04-03T06:52:51.274Z,97370.91
2023-04-03T06:57:49.790Z,97383.16
2023-04-03T07:02:41.757Z,97369.31
2023-04-03T07:07:43.659Z,97373.56
2023-04-03T07:22:49.758Z,97377.00
2023-04-03T07:43:03.168Z,97372.25
2023-04-03T07:47:56.161Z,97382.41
2023-04-03T07:52:50.465Z,97380.25
2023-04-03T07:57:43.376Z,97381.31
2023-04-03T08:02:38.683Z,97381.28
2023-04-03T08:07:30.470Z,97379.34
2023-04-03T08:17:32.650Z,97388.63
2023-04-03T08:22:24.365Z,97388.94
2023-04-03T08:27:16.266Z,97377.84
2023-04-03T08:32:08.349Z,97384.94
2023-04-03T08:37:00.433Z,97383.44
2023-04-03T08:41:54.346Z,97378.25
2023-04-03T08:52:18.429Z,97386.56
2023-04-03T08:57:13.223Z,97390.38
2023-04-03T09:02:26.395Z,97401.84
2023-04-03T09:07:38.980Z,97406.91
2023-04-03T09:18:25.866Z,97391.81
2023-04-03T09:23:25.233Z,97399.34
2023-04-03T09:28:23.062Z,97403.00
2023-04-03T09:33:18.138Z,97401.84
2023-04-03T09:38:12.691Z,97403.66
2023-04-03T09:43:35.183Z,97395.03
2023-04-03T09:48:29.306Z,97398.34
2023-04-03T09:53:50.632Z,97393.69
2023-04-03T09:58:50.886Z,97394.31
2023-04-03T10:09:18.323Z,97392.16
2023-04-03T10:14:21.906Z,97380.00
2023-04-03T10:25:59.066Z,97383.09
2023-04-03T10:31:35.690Z,97378.38
2023-04-03T10:48:06.446Z,97363.94
2023-04-03T10:58:37.499Z,97363.16
2023-04-03T11:14:33.343Z,97356.66
2023-04-03T11:35:56.672Z,97337.91
2023-04-03T11:51:18.406Z,97328.69
2023-04-03T12:07:14.726Z,97318.44
2023-04-03T12:12:23.635Z,97312.56
2023-04-03T12:17:29.048Z,97315.41
2023-04-03T12:22:22.004Z,97309.41
2023-04-03T12:27:24.306Z,97314.34
2023-04-03T12:32:38.725Z,97306.38
2023-04-03T12:38:25.746Z,97311.31
2023-04-03T12:44:17.267Z,97310.06
2023-04-03T13:00:00.377Z,97305.19
2023-04-03T13:05:00.495Z,97288.44
2023-04-03T13:10:22.418Z,97299.19
2023-04-03T13:20:35.363Z,97303.75
2023-04-03T13:25:32.290Z,97301.38
2023-04-03T13:30:32.029Z,97292.19
2023-04-03T13:35:39.358Z,97284.50
2023-04-03T13:40:38.003Z,97289.09
2023-04-03T13:45:37.585Z,97283.31
2023-04-03T13:50:30.689Z,97277.47
2023-04-03T13:55:56.764Z,97290.72
2023-04-03T14:01:07.552Z,97279.47
2023-04-03T14:06:05.778Z,97276.41
2023-04-03T14:10:58.578Z,97280.63
2023-04-03T14:15:51.779Z,97268.00
2023-04-03T14:20:44.815Z,97277.59
2023-04-03T14:25:36.564Z,97270.25
2023-04-03T14:30:31.215Z,97274.59
2023-04-03T14:35:24.141Z,97280.56
2023-04-03T14:40:25.414Z,97273.03
2023-04-03T14:50:32.150Z,97272.75
2023-04-03T14:55:26.629Z,97254.66
2023-04-03T15:00:21.620Z,97259.13
2023-04-03T15:05:15.360Z,97256.81
2023-04-03T15:15:31.079Z,97266.78
2023-04-03T15:20:27.708Z,97258.22
2023-04-03T15:25:19.979Z,97272.06
2023-04-03T15:30:25.627Z,97267.19
2023-04-03T15:35:19.944Z,97267.78
2023-04-03T15:40:13.984Z,97272.41
2023-04-03T16:00:27.056Z,97283.75
2023-04-03T16:05:20.189Z,97284.31
2023-04-03T16:10:14.138Z,97267.59
2023-04-03T16:15:07.833Z,97272.06
2023-04-03T16:25:09.849Z,97283.09
2023-04-03T16:30:01.812Z,97275.44
2023-04-03T16:34:53.926Z,97288.63
2023-04-03T16:39:45.796Z,97289.25
2023-04-03T16:44:40.538Z,97299.03
2023-04-03T16:49:34.801Z,97293.38
2023-04-03T16:54:26.545Z,97287.56
2023-04-03T16:59:18.402Z,97294.13
2023-04-03T17:04:10.386Z,97304.97
2023-04-03T17:09:02.613Z,97299.78
2023-04-03T17:13:54.379Z,97302.22
2023-04-03T17:24:02.916Z,97301.34
2023-04-03T17:28:54.742Z,97299.47
2023-04-03T17:38:59.967Z,97283.41
2023-04-03T17:43:52.072Z,97285.38
2023-04-03T17:48:44.452Z,97283.56
2023-04-03T17:53:39.907Z,97295.06
2023-04-03T17:58:31.579Z,97293.09
2023-04-03T18:08:34.218Z,97305.91
2023-04-03T18:13:29.176Z,97304.75
2023-04-03T18:18:22.145Z,97301.84
2023-04-03T18:23:13.907Z,97307.88
2023-04-03T18:28:06.576Z,97312.63
2023-04-03T18:32:58.925Z,97291.81
2023-04-03T18:37:50.800Z,97304.38
2023-04-03T18:47:50.044Z,97302.03
2023-04-03T18:52:50.302Z,97311.44
2023-04-03T18:57:42.086Z,97315.91
2023-04-03T19:02:34.620Z,97312.84
2023-04-03T19:07:28.235Z,97324.75
2023-04-03T19:12:21.488Z,97307.59
2023-04-03T19:17:15.111Z,97320.97
2023-04-03T19:27:14.607Z,97306.81
2023-04-03T19:37:14.162Z,97313.97
2023-04-03T19:42:07.248Z,97317.44
2023-04-03T19:47:00.915Z,97320.41
2023-04-03T19:51:55.640Z,97321.25
2023-04-03T19:56:47.576Z,97318.72
2023-04-03T20:01:44.643Z,97326.34
2023-04-03T20:06:37.295Z,97316.75
2023-04-03T20:11:28.951Z,97314.50
2023-04-03T20:16:25.008Z,97316.00
2023-04-03T20:21:18.706Z,97310.84
2023-04-03T20:26:24.834Z,97310.34
2023-04-03T20:31:17.749Z,97327.66
2023-04-03T20:36:20.300Z,97311.47
2023-04-03T20:41:16.471Z,97319.91
2023-04-03T20:46:10.752Z,97317.53
2023-04-03T20:51:19.976Z,97305.41
2023-04-03T20:56:12.392Z,97301.38
2023-04-03T21:01:13.721Z,97295.25
2023-04-03T21:07:02.523Z,97300.13
2023-04-03T21:12:52.737Z,97296.25
2023-04-03T21:28:21.360Z,97282.38
2023-04-03T21:33:14.091Z,97283.84
2023-04-03T21:38:05.834Z,97283.38
2023-04-03T21:42:58.716Z,97279.16
2023-04-03T21:47:51.649Z,97272.69
2023-04-03T21:52:48.436Z,97275.00
2023-04-03T21:57:41.082Z,97269.34
2023-04-03T22:02:38.056Z,97274.84
2023-04-03T22:13:01.083Z,97280.69
2023-04-03T22:18:00.012Z,97270.50
2023-04-03T22:22:54.079Z,97286.56
2023-04-03T22:27:46.381Z,97280.41
2023-04-03T22:32:42.004Z,97280.91
2023-04-03T22:37:33.705Z,97278.97
2023-04-03T22:42:26.533Z,97280.59
2023-04-03T22:47:18.213Z,97268.78
2023-04-03T23:08:39.277Z,97276.56
2023-04-03T23:18:45.287Z,97284.31
2023-04-03T23:28:47.496Z,97282.53
2023-04-03T23:33:40.244Z,97286.56
2023-04-03T23:38:31.945Z,97283.16
2023-04-03T23:43:24.004Z,97283.78
2023-04-03T23:53:26.350Z,97292.47
2023-04-03T23:58:23.145Z,97287.31
